Crawford, Mississippi
Current Conditions -  °F | °C
As of 4:45 PM on Friday 19 Dec 2014 (Local Time) from KGTR Reporting Station
Overcast Overcast  
Wind Chill: 44°   Ceiling: 7500
Heat Index: 46°   Visibility: 10mi
Dew Point: 39°   Wind: 6mph
Humidity: 76%   Direction: 10°N
Pressure: 30.16"   Gusts: NA
Location:  33.3°N, 88.61°W
Report Text: KGTR 192245Z 01005KT 10SM OVC075 08/04 A3016
Loading
Personal Weather Stations






























Interactive Weather Map New forecast layout! Learn more

10-Day Weather Forecast

Advertisements
Track Severe Weather on mobile